Messwerte Dover AFB DE

Temperatur

Temperatur
°C
1614484800 23.00 23.00 5
1614488400 0.00 0.00 5
1614492000 1.00 1.00 5
1614495600 2.00 2.00 5
1614499200 3.00 3.00 5
1614502800 4.00 4.00 5
1614506400 5.00 5.00 5
1614510000 6.00 6.00 5
1614513600 7.00 7.00 6
1614517200 8.00 8.00 6
1614520800 9.00 9.00 7
1614524400 10.00 10.00 7
1614528000 11.00 11.00 6
1614531600 12.00 12.00 6
1614535200 13.00 13.00
1614538800 14.00 14.00 6
1614542400 15.00 15.00 6
1614546000 16.00 16.00 7
1614549600 17.00 17.00 7
1614553200 18.00 18.00
1614556800 19.00 19.00 7
1614560400 20.00 20.00 7
1614564000 21.00 21.00 7
1614567600 22.00 22.00 7

Aktuellste Messwerte

Wettercharakter
Wetter: bedeckt, wenig Regen
Temperatur
7 °C
Feuchtigkeit
100 %
Wind
5 km/hWindrichtung: Ost
Luftdruck
1013 hPa
Messzeit: 28. Februar 2021, 22.00Datenquelle: METAR

Weitere Messstationen in der Nähe

Messstation Temperatur Entfernung
Millville 8 °C 42 km
Wildwood 9 °C 49 km
Georgetown 11 °C 50 km
Wilmington 6 °C 62 km
Easton / Newman Field 8 °C 64 km
Aberdeen 6 °C 74 km
Atlantic City 9 °C 84 km

Wind

Windrichtung Böen Mittelwind
° km/h km/h
1614484800 23.00 22.00 - 23.00 0
1614488400 0.00 23.00 - 0.00 0
1614492000 1.00 0.00 - 1.00 0
1614495600 2.00 1.00 - 2.00 0
1614499200 3.00 2.00 - 3.00 0
1614502800 4.00 3.00 - 4.00 0
1614506400 5.00 4.00 - 5.00 0
1614510000 6.00 5.00 - 6.00 100° 5
1614513600 7.00 6.00 - 7.00 210° 0
1614517200 8.00 7.00 - 8.00 0
1614520800 9.00 8.00 - 9.00 70° 10
1614524400 10.00 9.00 - 10.00 80° 20
1614528000 11.00 10.00 - 11.00 80° 15
1614531600 12.00 11.00 - 12.00 80° 30 20
1614535200 13.00 12.00 - 13.00
1614538800 14.00 13.00 - 14.00 50° 40 25
1614542400 15.00 14.00 - 15.00 40° 20
1614546000 16.00 15.00 - 16.00 80° 35 25
1614549600 17.00 16.00 - 17.00 50° 15
1614553200 18.00 17.00 - 18.00
1614556800 19.00 18.00 - 19.00 90° 10
1614560400 20.00 19.00 - 20.00 100° 15
1614564000 21.00 20.00 - 21.00 90° 15
1614567600 22.00 21.00 - 22.00 80° 5

Ihre Wetterstation

Fehlt Ihre Wetterstation auf unserem Portal?

Schreiben Sie an network@meteonews.ch

Klima

Wann ist es am wärmsten? Wann regnet es am wenigsten? Unsere Klimadaten geben Auskunft.